Sao Francisco, Brazil
Current Conditions -  °F | °C
As of 10:00 AM on Thursday 30 Oct 2014 (Local Time) from SBMK Reporting Station
Light Rain Light Rain  
Wind Chill: 72°   Ceiling: 8000
Heat Index: 72°   Visibility: 4mi
Dew Point: 66°   Wind: 7mph
Humidity: 83%   Direction: 360°N
Pressure: 30.06"   Gusts: NA
Location:  15.95°S, 44.86°W
Report Text: SBMK 301200Z 36006KT 6000 -RA FEW007 SCT010 OVC080 22/19 Q1018
Loading
Personal Weather Stations






























Interactive Weather Map
Tropical Storm Tracking
New forecast layout! Learn more

10-Day Weather Forecast

Advertisements
Track Severe Weather on mobile